Time;durP1;ratioP1;P1;durP2;ratioP2;P2;SDS_P1;SDS_P2;PMS_P1;PMS_P2;Temp;Humidity;BMP_temperature;BMP_pressure;BME280_temperature;BME280_humidity;BME280_pressure;Samples;Min_cycle;Max_cycle;Signal;HPM_P1;HPM_P2
2022/09/25 00:01:37;;;;;;;2.88;1.17;;;;;;;;;;4968643;28;20057;-58
2022/09/25 00:04:06;;;;;;;5.13;1.27;;;;;;;;;;4966686;28;20070;-60
2022/09/25 00:06:32;;;;;;;4.35;1.13;;;;;;;;;;4968900;28;20055;-66
2022/09/25 00:09:00;;;;;;;3.33;1.30;;;;;;;;;;4966143;28;20053;-66
2022/09/25 00:11:28;;;;;;;4.20;1.30;;;;;;;;;;4971066;28;20046;-62
2022/09/25 00:13:57;;;;;;;4.13;1.35;;;;;;;;;;4958366;28;20051;-63
2022/09/25 00:16:26;;;;;;;2.90;1.30;;;;;;;;;;4959243;28;20051;-61
2022/09/25 00:21:37;;;;;;;2.80;1.05;;;;;;;;;;4974073;28;20125;-60
2022/09/25 00:24:12;;;;;;;3.60;1.23;;;;;;;;;;4969928;28;20058;-60
2022/09/25 00:26:39;;;;;;;2.67;1.17;;;;;;;;;;4973382;28;20055;-63
2022/09/25 00:29:06;;;;;;;4.30;1.50;;;;;;;;;;4970267;28;20054;-65
2022/09/25 00:31:35;;;;;;;4.00;1.10;;;;;;;;;;4973596;28;20063;-64
2022/09/25 00:34:04;;;;;;;2.55;1.23;;;;;;;;;;4969776;28;20073;-56
2022/09/25 00:36:31;;;;;;;3.00;1.30;;;;;;;;;;4973555;28;20058;-64
2022/09/25 00:38:57;;;;;;;2.95;1.27;;;;;;;;;;4970201;28;20054;-63
2022/09/25 00:41:25;;;;;;;6.93;1.50;;;;;;;;;;4973288;28;20051;-60
2022/09/25 00:43:54;;;;;;;2.58;1.27;;;;;;;;;;4969605;28;20112;-63
2022/09/25 00:46:22;;;;;;;3.00;1.25;;;;;;;;;;4973404;28;20051;-64
2022/09/25 00:48:53;;;;;;;2.58;0.93;;;;;;;;;;4973754;28;20051;-63
2022/09/25 00:51:23;;;;;;;3.17;1.20;;;;;;;;;;4972082;28;20046;-67
2022/09/25 00:53:50;;;;;;;2.58;1.13;;;;;;;;;;4973200;28;20122;-64
2022/09/25 00:56:16;;;;;;;4.20;1.35;;;;;;;;;;4972864;28;20104;-66
2022/09/25 00:58:43;;;;;;;3.20;1.00;;;;;;;;;;4976347;28;20066;-60
2022/09/25 01:01:10;;;;;;;2.53;1.10;;;;;;;;;;4942662;28;20047;-59
2022/09/25 01:03:45;;;;;;;1.98;1.08;;;;;;;;;;4949989;28;20050;-60
2022/09/25 01:06:14;;;;;;;4.07;1.15;;;;;;;;;;4966769;28;20173;-57
2022/09/25 01:08:41;;;;;;;2.55;1.50;;;;;;;;;;4975905;28;20050;-61
2022/09/25 01:11:08;;;;;;;1.90;1.00;;;;;;;;;;4971885;28;20089;-61
2022/09/25 01:13:35;;;;;;;2.58;1.30;;;;;;;;;;4975267;28;20050;-60
2022/09/25 01:16:08;;;;;;;3.63;1.30;;;;;;;;;;4971799;28;20062;-62
2022/09/25 01:18:40;;;;;;;3.80;1.30;;;;;;;;;;4976151;28;20229;-60
2022/09/25 01:21:19;;;;;;;2.05;1.15;;;;;;;;;;4963899;28;20051;-57
2022/09/25 01:24:04;;;;;;;3.55;1.13;;;;;;;;;;4955089;28;20057;-51
2022/09/25 01:26:47;;;;;;;1.58;0.93;;;;;;;;;;4941775;28;20071;-58
2022/09/25 01:29:17;;;;;;;2.75;1.30;;;;;;;;;;4936995;29;20059;-58
2022/09/25 01:31:47;;;;;;;3.22;1.20;;;;;;;;;;4943554;28;20131;-60
2022/09/25 01:34:18;;;;;;;2.92;1.08;;;;;;;;;;4955900;28;20050;-53
2022/09/25 01:36:47;;;;;;;3.08;1.27;;;;;;;;;;4960007;28;20065;-58
2022/09/25 01:39:19;;;;;;;2.90;1.30;;;;;;;;;;4961305;28;20075;-55
2022/09/25 01:41:49;;;;;;;4.15;1.20;;;;;;;;;;4953706;28;20141;-58
2022/09/25 01:44:20;;;;;;;2.08;1.13;;;;;;;;;;4956579;28;20050;-57
2022/09/25 01:46:47;;;;;;;3.85;1.48;;;;;;;;;;4958160;28;20050;-61
2022/09/25 01:49:17;;;;;;;4.50;1.20;;;;;;;;;;4975693;28;20074;-53
2022/09/25 01:51:45;;;;;;;2.83;1.10;;;;;;;;;;4971523;28;20045;-53
2022/09/25 01:54:14;;;;;;;3.97;1.33;;;;;;;;;;4975483;28;20057;-53
2022/09/25 01:56:40;;;;;;;;;;;;;;;;;;4970491;28;20054;-54
2022/09/25 01:59:08;;;;;;;3.08;1.15;;;;;;;;;;4956192;28;19925;-49
2022/09/25 02:01:40;;;;;;;3.38;1.45;;;;;;;;;;4955546;28;20320;-51
2022/09/25 02:04:10;;;;;;;3.47;1.45;;;;;;;;;;4970940;28;20061;-58
2022/09/25 02:06:38;;;;;;;3.55;1.25;;;;;;;;;;4974042;28;20074;-57
2022/09/25 02:09:07;;;;;;;2.70;1.20;;;;;;;;;;4937610;28;20047;-56
2022/09/25 02:11:35;;;;;;;4.55;1.33;;;;;;;;;;4936382;29;20106;-60
2022/09/25 02:14:15;;;;;;;5.35;1.80;;;;;;;;;;4967192;28;20091;-57
2022/09/25 02:16:43;;;;;;;3.17;1.38;;;;;;;;;;4974838;28;20046;-61
2022/09/25 02:21:56;;;;;;;3.88;1.30;;;;;;;;;;4953144;28;20058;-58
2022/09/25 02:24:25;;;;;;;2.92;1.25;;;;;;;;;;4963868;28;20046;-63
2022/09/25 02:26:51;;;;;;;;;;;;;;;;;;4972689;28;20047;-62
2022/09/25 02:29:18;;;;;;;2.60;1.15;;;;;;;;;;4957845;28;19922;-61
2022/09/25 02:31:48;;;;;;;3.33;1.40;;;;;;;;;;4954768;28;20058;-57
2022/09/25 02:34:14;;;;;;;2.53;1.23;;;;;;;;;;4960937;28;20077;-57
2022/09/25 02:36:41;;;;;;;3.75;1.20;;;;;;;;;;4974398;28;20050;-54
2022/09/25 02:39:09;;;;;;;3.85;1.40;;;;;;;;;;4950856;28;20066;-58
2022/09/25 02:41:43;;;;;;;1.52;1.00;;;;;;;;;;4951589;28;20108;-56
2022/09/25 02:44:14;;;;;;;4.10;1.20;;;;;;;;;;4958299;28;20059;-59
2022/09/25 02:46:44;;;;;;;1.95;1.15;;;;;;;;;;4974140;28;20050;-60
2022/09/25 02:49:16;;;;;;;2.28;1.10;;;;;;;;;;4965361;28;20043;-62
2022/09/25 02:51:46;;;;;;;2.08;1.20;;;;;;;;;;5031550;23;20025;-57
2022/09/25 02:54:19;;;;;;;2.28;1.10;;;;;;;;;;4959019;28;20101;-56
2022/09/25 02:56:48;;;;;;;1.83;0.95;;;;;;;;;;4968808;28;20046;-60
2022/09/25 02:59:18;;;;;;;3.88;1.13;;;;;;;;;;4956099;28;20065;-54
2022/09/25 03:01:45;;;;;;;3.85;1.20;;;;;;;;;;4951609;28;20054;-55
2022/09/25 03:04:14;;;;;;;2.42;1.00;;;;;;;;;;4970388;28;20054;-54
2022/09/25 03:06:41;;;;;;;2.40;0.98;;;;;;;;;;4967084;28;20051;-61
2022/09/25 03:09:09;;;;;;;2.28;1.13;;;;;;;;;;4952396;28;20124;-61
2022/09/25 03:11:42;;;;;;;2.53;1.15;;;;;;;;;;4951538;28;20089;-62
2022/09/25 03:14:09;;;;;;;4.40;1.02;;;;;;;;;;4970809;28;20154;-57
2022/09/25 03:16:38;;;;;;;2.15;1.10;;;;;;;;;;4961797;28;20063;-56
2022/09/25 03:19:05;;;;;;;4.13;1.02;;;;;;;;;;4969357;28;20065;-56
2022/09/25 03:21:33;;;;;;;1.60;0.90;;;;;;;;;;4970265;28;20053;-57
2022/09/25 03:24:00;;;;;;;2.70;1.10;;;;;;;;;;4963468;28;20065;-61
2022/09/25 03:26:27;;;;;;;1.58;1.05;;;;;;;;;;4969767;28;20055;-60
2022/09/25 03:28:54;;;;;;;3.85;1.38;;;;;;;;;;4953789;28;20145;-58
2022/09/25 03:31:20;;;;;;;3.72;1.05;;;;;;;;;;4951041;28;20057;-58
2022/09/25 03:33:47;;;;;;;2.30;1.17;;;;;;;;;;4946671;28;20058;-62
2022/09/25 03:36:15;;;;;;;1.67;1.00;;;;;;;;;;4950092;28;20051;-56
2022/09/25 03:38:44;;;;;;;2.75;1.00;;;;;;;;;;4958317;28;20050;-58
2022/09/25 03:41:12;;;;;;;2.10;1.00;;;;;;;;;;4966743;28;20183;-63
2022/09/25 03:43:42;;;;;;;1.98;1.00;;;;;;;;;;4969782;28;20085;-61
2022/09/25 03:46:09;;;;;;;1.80;1.02;;;;;;;;;;4961502;28;20051;-63
2022/09/25 03:48:37;;;;;;;2.13;1.25;;;;;;;;;;4969989;28;20057;-58
2022/09/25 03:51:04;;;;;;;2.97;1.00;;;;;;;;;;4967673;28;20058;-58
2022/09/25 03:53:32;;;;;;;2.33;1.00;;;;;;;;;;4970210;28;20066;-56
2022/09/25 03:56:00;;;;;;;3.85;1.00;;;;;;;;;;4961661;28;20063;-58
2022/09/25 03:58:27;;;;;;;2.42;0.90;;;;;;;;;;4951266;28;20062;-58
2022/09/25 04:00:56;;;;;;;2.35;1.08;;;;;;;;;;4951438;28;20062;-58
2022/09/25 04:03:22;;;;;;;2.60;0.95;;;;;;;;;;4961473;28;20051;-61
2022/09/25 04:05:49;;;;;;;2.38;1.20;;;;;;;;;;4970014;28;20073;-61
2022/09/25 04:08:17;;;;;;;2.42;1.15;;;;;;;;;;4964320;28;20055;-58
2022/09/25 04:10:44;;;;;;;2.20;1.10;;;;;;;;;;4954410;28;20145;-58
2022/09/25 04:13:13;;;;;;;1.73;1.00;;;;;;;;;;4964886;28;20051;-61
2022/09/25 04:15:40;;;;;;;1.10;0.85;;;;;;;;;;4970490;28;20098;-60
2022/09/25 04:18:07;;;;;;;2.70;0.90;;;;;;;;;;4965622;28;20051;-59
2022/09/25 04:20:34;;;;;;;2.33;1.00;;;;;;;;;;4971130;28;20051;-55
2022/09/25 04:23:00;;;;;;;2.00;1.08;;;;;;;;;;4964629;28;20050;-52
2022/09/25 04:25:27;;;;;;;3.35;1.10;;;;;;;;;;4969740;28;20070;-59
2022/09/25 04:27:55;;;;;;;2.00;0.75;;;;;;;;;;4964127;28;20161;-56
2022/09/25 04:30:23;;;;;;;1.23;0.73;;;;;;;;;;4970103;28;20055;-50
2022/09/25 04:35:34;;;;;;;1.77;1.00;;;;;;;;;;4969399;28;20100;-50
2022/09/25 04:38:00;;;;;;;2.22;1.00;;;;;;;;;;4963751;28;20054;-54
2022/09/25 04:40:27;;;;;;;1.52;0.95;;;;;;;;;;4969591;28;20059;-59
2022/09/25 04:42:55;;;;;;;1.50;0.73;;;;;;;;;;4969726;28;20054;-62
2022/09/25 04:45:25;;;;;;;2.50;1.02;;;;;;;;;;4963163;28;20054;-58
2022/09/25 04:48:02;;;;;;;1.70;1.00;;;;;;;;;;4970386;28;20142;-58
2022/09/25 04:50:55;;;;;;;1.90;0.98;;;;;;;;;;4952456;28;20073;-57
2022/09/25 04:54:07;;;;;;;1.00;0.73;;;;;;;;;;4964830;28;20050;-51
2022/09/25 04:56:49;;;;;;;1.38;0.88;;;;;;;;;;4931626;28;20059;-52
2022/09/25 05:02:42;;;;;;;1.60;0.95;;;;;;;;;;4913175;28;20055;-54
2022/09/25 05:05:39;;;;;;;1.13;0.80;;;;;;;;;;4919560;28;20078;-57
2022/09/25 05:08:15;;;;;;;2.80;0.90;;;;;;;;;;4912072;28;20146;-54
2022/09/25 05:11:16;;;;;;;3.58;0.70;;;;;;;;;;4943355;28;20055;-51
2022/09/25 05:17:21;;;;;;;1.05;0.80;;;;;;;;;;4940414;28;20049;-55
2022/09/25 05:19:50;;;;;;;1.63;1.00;;;;;;;;;;4947930;28;20174;-60
2022/09/25 05:22:19;;;;;;;1.13;0.80;;;;;;;;;;4969189;28;20069;-61
2022/09/25 05:24:45;;;;;;;1.17;0.70;;;;;;;;;;4964627;28;20051;-56
2022/09/25 05:27:12;;;;;;;2.15;1.15;;;;;;;;;;4968009;28;20054;-59
2022/09/25 05:29:39;;;;;;;2.38;1.00;;;;;;;;;;4969438;28;20055;-60
2022/09/25 05:32:06;;;;;;;2.05;1.15;;;;;;;;;;4963058;28;20082;-60
2022/09/25 05:34:34;;;;;;;2.05;0.80;;;;;;;;;;4968275;28;20062;-62
2022/09/25 05:37:02;;;;;;;1.08;0.75;;;;;;;;;;4963079;28;20066;-59
2022/09/25 05:39:30;;;;;;;1.80;0.88;;;;;;;;;;4969476;28;20059;-61
2022/09/25 05:41:57;;;;;;;2.15;1.02;;;;;;;;;;4963284;28;20057;-59
2022/09/25 05:44:23;;;;;;;1.60;0.80;;;;;;;;;;4968824;28;20073;-60
2022/09/25 05:46:50;;;;;;;0.88;0.70;;;;;;;;;;4962200;28;20061;-56
2022/09/25 05:49:16;;;;;;;1.95;0.73;;;;;;;;;;4970197;28;20066;-56
2022/09/25 05:51:43;;;;;;;1.35;0.70;;;;;;;;;;4965266;28;20057;-58
2022/09/25 05:54:10;;;;;;;1.02;0.77;;;;;;;;;;4971323;28;20077;-56
2022/09/25 05:56:38;;;;;;;1.02;0.73;;;;;;;;;;4963696;28;20054;-58
2022/09/25 05:59:05;;;;;;;0.97;0.73;;;;;;;;;;4971281;28;20109;-52
2022/09/25 06:01:31;;;;;;;1.08;0.80;;;;;;;;;;4965002;28;20305;-59
2022/09/25 06:03:59;;;;;;;1.38;0.90;;;;;;;;;;4971011;28;20054;-64
2022/09/25 06:06:25;;;;;;;0.95;0.80;;;;;;;;;;4964196;28;20050;-53
2022/09/25 06:08:53;;;;;;;1.48;0.80;;;;;;;;;;4970820;28;20109;-61
2022/09/25 06:11:21;;;;;;;2.90;0.90;;;;;;;;;;4970545;28;20105;-63
2022/09/25 06:13:50;;;;;;;1.35;0.70;;;;;;;;;;4964462;28;20335;-58
2022/09/25 06:16:18;;;;;;;2.30;1.00;;;;;;;;;;4970384;28;20065;-61
2022/09/25 06:18:45;;;;;;;1.30;0.70;;;;;;;;;;4980177;28;20050;-60
2022/09/25 06:21:11;;;;;;;2.15;0.73;;;;;;;;;;4970567;28;20126;-61
2022/09/25 06:23:38;;;;;;;1.83;0.80;;;;;;;;;;4963872;28;20050;-56
2022/09/25 06:26:06;;;;;;;2.33;1.00;;;;;;;;;;4970020;28;20046;-58
2022/09/25 06:28:34;;;;;;;2.13;0.77;;;;;;;;;;4964120;28;20058;-60
2022/09/25 06:31:02;;;;;;;0.82;0.68;;;;;;;;;;4970736;28;20046;-53
2022/09/25 06:33:29;;;;;;;0.93;0.80;;;;;;;;;;4964578;28;20053;-60
2022/09/25 06:35:56;;;;;;;1.25;0.75;;;;;;;;;;4970022;28;20136;-60
2022/09/25 06:38:24;;;;;;;1.33;0.80;;;;;;;;;;4964517;28;21494;-55
2022/09/25 06:40:50;;;;;;;1.33;0.70;;;;;;;;;;4970702;28;20058;-62
2022/09/25 06:43:17;;;;;;;2.47;1.10;;;;;;;;;;4961186;28;20062;-58
2022/09/25 06:45:46;;;;;;;2.92;1.23;;;;;;;;;;4961672;28;20071;-57
2022/09/25 06:48:15;;;;;;;3.33;1.45;;;;;;;;;;4953178;28;20068;-61
2022/09/25 06:50:42;;;;;;;1.40;0.82;;;;;;;;;;4975053;28;20058;-53
2022/09/25 06:53:10;;;;;;;1.20;0.83;;;;;;;;;;4916305;28;1205625;-53
2022/09/25 06:55:37;;;;;;;2.65;1.10;;;;;;;;;;4960469;28;20057;-60
2022/09/25 06:58:05;;;;;;;1.55;1.00;;;;;;;;;;4976480;28;20142;-58
2022/09/25 07:00:32;;;;;;;1.52;0.98;;;;;;;;;;4973690;28;20058;-55
2022/09/25 07:05:46;;;;;;;1.45;0.85;;;;;;;;;;4961002;28;20061;-60
2022/09/25 07:08:15;;;;;;;1.10;0.80;;;;;;;;;;4978136;28;20108;-55
2022/09/25 07:10:46;;;;;;;1.80;1.00;;;;;;;;;;4969423;28;20153;-60
2022/09/25 07:13:13;;;;;;;1.45;0.70;;;;;;;;;;4959688;28;20050;-57
2022/09/25 07:15:40;;;;;;;2.90;1.13;;;;;;;;;;4954843;28;20062;-51
2022/09/25 07:18:06;;;;;;;3.00;1.33;;;;;;;;;;4958806;28;20054;-50
2022/09/25 07:20:33;;;;;;;2.30;1.00;;;;;;;;;;4970729;28;20054;-63
2022/09/25 07:23:03;;;;;;;3.97;1.30;;;;;;;;;;4958736;28;20054;-63
2022/09/25 07:25:30;;;;;;;2.60;1.00;;;;;;;;;;4956465;28;20065;-54
2022/09/25 07:27:57;;;;;;;2.10;1.08;;;;;;;;;;4956924;28;20134;-56
2022/09/25 07:30:24;;;;;;;3.78;1.08;;;;;;;;;;4956709;28;20054;-51
2022/09/25 07:32:51;;;;;;;2.15;1.02;;;;;;;;;;4963428;28;20046;-53
2022/09/25 07:35:18;;;;;;;2.15;1.00;;;;;;;;;;4968982;28;20064;-52
2022/09/25 07:37:44;;;;;;;4.43;1.45;;;;;;;;;;4974200;28;20070;-57
2022/09/25 07:40:13;;;;;;;2.22;1.08;;;;;;;;;;4964845;28;20058;-56
2022/09/25 07:42:40;;;;;;;3.00;1.27;;;;;;;;;;4974103;28;20058;-61
2022/09/25 07:45:07;;;;;;;5.57;1.30;;;;;;;;;;4974304;28;20051;-59
2022/09/25 07:47:34;;;;;;;1.92;0.93;;;;;;;;;;4969906;28;20061;-54
2022/09/25 07:50:00;;;;;;;2.92;1.10;;;;;;;;;;4973858;28;20059;-53
2022/09/25 07:52:27;;;;;;;2.65;1.40;;;;;;;;;;4967306;28;20050;-59
2022/09/25 07:54:54;;;;;;;5.03;1.42;;;;;;;;;;4974342;28;20058;-52
2022/09/25 07:57:22;;;;;;;3.08;1.27;;;;;;;;;;4967524;28;20061;-55
2022/09/25 07:59:48;;;;;;;2.25;0.98;;;;;;;;;;4974113;28;20054;-57
2022/09/25 08:02:16;;;;;;;5.95;1.70;;;;;;;;;;4967295;28;20042;-57
2022/09/25 08:04:43;;;;;;;4.55;1.52;;;;;;;;;;4973729;28;20054;-60
2022/09/25 08:07:09;;;;;;;2.83;1.30;;;;;;;;;;4967498;28;20055;-53
2022/09/25 08:09:36;;;;;;;3.40;1.33;;;;;;;;;;4974092;28;20050;-61
2022/09/25 08:12:02;;;;;;;1.10;0.88;;;;;;;;;;4967433;28;20061;-60
2022/09/25 08:14:32;;;;;;;1.33;0.80;;;;;;;;;;4971988;28;20054;-57
2022/09/25 08:16:58;;;;;;;4.90;1.20;;;;;;;;;;4967164;28;20063;-55
2022/09/25 08:19:26;;;;;;;2.72;1.20;;;;;;;;;;4973928;28;20050;-58
2022/09/25 08:21:53;;;;;;;6.32;1.10;;;;;;;;;;4967903;28;20258;-57
2022/09/25 08:24:19;;;;;;;3.17;1.10;;;;;;;;;;4973261;28;20050;-54
2022/09/25 08:26:47;;;;;;;9.30;2.13;;;;;;;;;;4970935;28;20051;-60
2022/09/25 08:29:17;;;;;;;3.63;1.48;;;;;;;;;;4969395;28;20134;-56
2022/09/25 08:31:45;;;;;;;3.50;1.00;;;;;;;;;;4967244;28;20051;-57
2022/09/25 08:34:12;;;;;;;2.63;1.17;;;;;;;;;;4965716;28;20069;-63
2022/09/25 08:36:39;;;;;;;2.08;1.10;;;;;;;;;;4972367;28;20145;-57
2022/09/25 08:39:05;;;;;;;7.25;1.75;;;;;;;;;;4967458;28;20057;-58
2022/09/25 08:41:34;;;;;;;4.65;1.20;;;;;;;;;;4973149;28;20374;-58
2022/09/25 08:44:04;;;;;;;2.42;1.00;;;;;;;;;;4967209;28;20070;-56
2022/09/25 08:49:25;;;;;;;3.65;1.13;;;;;;;;;;4985505;28;20061;-63
2022/09/25 08:51:53;;;;;;;4.68;0.90;;;;;;;;;;4973431;28;20057;-59
2022/09/25 08:54:22;;;;;;;2.10;1.00;;;;;;;;;;4966502;28;20065;-58
2022/09/25 08:56:50;;;;;;;5.95;1.15;;;;;;;;;;4972029;28;20100;-59
2022/09/25 08:59:22;;;;;;;4.82;1.17;;;;;;;;;;4982790;28;20055;-60
2022/09/25 09:01:52;;;;;;;1.23;0.90;;;;;;;;;;4972480;28;20133;-56
2022/09/25 09:04:21;;;;;;;3.00;1.10;;;;;;;;;;4967027;28;20050;-53
2022/09/25 09:06:53;;;;;;;4.82;1.60;;;;;;;;;;4968015;28;20065;-59
2022/09/25 09:09:23;;;;;;;6.63;1.30;;;;;;;;;;4967000;28;20113;-55
2022/09/25 09:11:54;;;;;;;1.92;1.00;;;;;;;;;;4968419;28;20058;-62
2022/09/25 09:14:21;;;;;;;2.92;0.98;;;;;;;;;;4973202;28;20054;-59
2022/09/25 09:16:52;;;;;;;2.15;0.98;;;;;;;;;;4969000;28;20166;-55
2022/09/25 09:19:19;;;;;;;1.60;1.00;;;;;;;;;;4960873;28;20046;-51
2022/09/25 09:21:49;;;;;;;4.68;1.13;;;;;;;;;;4975058;28;20061;-59
2022/09/25 09:24:17;;;;;;;5.75;1.30;;;;;;;;;;4952662;28;20062;-57
2022/09/25 09:26:44;;;;;;;;;;;;;;;;;;4970846;28;20053;-54
2022/09/25 09:29:18;;;;;;;2.22;0.80;;;;;;;;;;4960735;28;19930;-55
2022/09/25 09:31:51;;;;;;;1.75;0.90;;;;;;;;;;4950498;28;20057;-56
2022/09/25 09:34:40;;;;;;;3.22;1.10;;;;;;;;;;4983525;28;20124;-53
2022/09/25 09:37:14;;;;;;;3.90;0.90;;;;;;;;;;4945271;28;20073;-54
2022/09/25 09:39:46;;;;;;;2.53;0.85;;;;;;;;;;4968713;28;20050;-54
2022/09/25 09:42:17;;;;;;;2.72;1.10;;;;;;;;;;4963823;28;20061;-50
2022/09/25 09:44:57;;;;;;;2.38;0.80;;;;;;;;;;4973084;28;20046;-51
2022/09/25 09:47:31;;;;;;;2.63;0.68;;;;;;;;;;4978631;28;20050;-56
2022/09/25 09:50:00;;;;;;;5.20;0.90;;;;;;;;;;4969081;28;20061;-58
2022/09/25 09:52:30;;;;;;;2.10;0.90;;;;;;;;;;4949703;28;20142;-57
2022/09/25 09:55:00;;;;;;;6.20;0.75;;;;;;;;;;4963585;28;20154;-54
2022/09/25 09:57:27;;;;;;;4.07;0.75;;;;;;;;;;4950657;28;20054;-54
2022/09/25 09:59:56;;;;;;;3.53;0.80;;;;;;;;;;4965165;28;20056;-56
2022/09/25 10:02:30;;;;;;;5.90;0.82;;;;;;;;;;4962062;28;20138;-54
2022/09/25 10:04:57;;;;;;;2.00;0.68;;;;;;;;;;4945601;28;20142;-58
2022/09/25 10:07:27;;;;;;;1.48;0.60;;;;;;;;;;4963454;28;20061;-55
2022/09/25 10:09:54;;;;;;;1.17;0.85;;;;;;;;;;4976278;28;20070;-55
2022/09/25 10:12:27;;;;;;;3.38;1.20;;;;;;;;;;4955598;28;20051;-60
2022/09/25 10:14:55;;;;;;;6.07;1.13;;;;;;;;;;4946012;28;20065;-60
2022/09/25 10:17:23;;;;;;;1.70;0.70;;;;;;;;;;4964900;28;20082;-65
2022/09/25 10:19:53;;;;;;;3.63;0.80;;;;;;;;;;4965021;28;20050;-56
2022/09/25 10:22:20;;;;;;;3.10;0.88;;;;;;;;;;4958957;28;20061;-54
2022/09/25 10:24:52;;;;;;;3.22;0.80;;;;;;;;;;4949087;28;20047;-60
2022/09/25 10:27:30;;;;;;;2.03;0.65;;;;;;;;;;4951892;28;20058;-56
2022/09/25 10:30:12;;;;;;;2.40;0.80;;;;;;;;;;4954099;28;20051;-63
2022/09/25 10:32:45;;;;;;;2.15;0.60;;;;;;;;;;4964780;28;20051;-64
2022/09/25 10:35:23;;;;;;;0.65;0.35;;;;;;;;;;4959651;28;20055;-65
2022/09/25 10:37:51;;;;;;;;;;;;;;;;;;4956746;28;20052;-59
2022/09/25 10:40:25;;;;;;;1.73;0.50;;;;;;;;;;4967159;28;19929;-53
2022/09/25 10:43:05;;;;;;;1.55;0.50;;;;;;;;;;4961078;28;20051;-61
2022/09/25 10:45:32;;;;;;;0.40;0.40;;;;;;;;;;4966887;28;20050;-51
2022/09/25 10:50:43;;;;;;;2.65;0.60;;;;;;;;;;4967298;28;20083;-58
2022/09/25 10:53:28;;;;;;;3.92;0.40;;;;;;;;;;4961849;28;20105;-56
2022/09/25 10:55:59;;;;;;;1.58;0.60;;;;;;;;;;4967214;28;20128;-61
2022/09/25 10:58:29;;;;;;;4.82;0.80;;;;;;;;;;4962114;28;20096;-58
2022/09/25 11:00:57;;;;;;;3.35;0.60;;;;;;;;;;4951394;28;20054;-59
2022/09/25 11:03:25;;;;;;;5.03;0.60;;;;;;;;;;4961237;28;20143;-59
2022/09/25 11:05:54;;;;;;;5.18;0.60;;;;;;;;;;4966707;28;20055;-61
2022/09/25 11:08:22;;;;;;;3.08;0.60;;;;;;;;;;4961308;28;20086;-56
2022/09/25 11:10:49;;;;;;;;;;;;;;;;;;4968069;28;20055;-61
2022/09/25 11:13:19;;;;;;;2.47;0.60;;;;;;;;;;4967020;28;19933;-62
2022/09/25 11:15:52;;;;;;;0.80;0.40;;;;;;;;;;4945599;28;20062;-63
2022/09/25 11:18:33;;;;;;;2.30;0.70;;;;;;;;;;4966710;28;20078;-63
2022/09/25 11:21:02;;;;;;;3.95;0.60;;;;;;;;;;4979374;28;20050;-61
2022/09/25 11:23:28;;;;;;;;;;;;;;;;;;4967415;28;20136;-53
2022/09/25 11:25:58;;;;;;;3.88;0.90;;;;;;;;;;4960411;28;19929;-54
2022/09/25 11:28:28;;;;;;;3.40;0.63;;;;;;;;;;4966494;28;20062;-57
2022/09/25 11:30:59;;;;;;;1.00;0.43;;;;;;;;;;4962998;28;20059;-59
2022/09/25 11:33:33;;;;;;;1.25;0.52;;;;;;;;;;4968661;28;20059;-64
2022/09/25 11:36:02;;;;;;;3.55;0.50;;;;;;;;;;4961307;28;20091;-57
2022/09/25 11:41:21;;;;;;;1.63;0.38;;;;;;;;;;4960598;28;20159;-62
2022/09/25 11:43:56;;;;;;;1.92;0.50;;;;;;;;;;4967475;28;20058;-56
2022/09/25 11:46:26;;;;;;;1.23;0.43;;;;;;;;;;4976443;28;20085;-55
2022/09/25 11:48:59;;;;;;;4.53;0.80;;;;;;;;;;4965239;28;20054;-53
2022/09/25 11:51:34;;;;;;;4.20;1.55;;;;;;;;;;4958792;28;20074;-57
2022/09/25 11:54:08;;;;;;;5.03;1.08;;;;;;;;;;4966544;28;20158;-60
2022/09/25 11:56:37;;;;;;;1.85;0.80;;;;;;;;;;4959932;28;20035;-56
2022/09/25 11:59:18;;;;;;;2.90;1.00;;;;;;;;;;4966016;28;20170;-53
2022/09/25 12:01:48;;;;;;;2.72;0.60;;;;;;;;;;4975492;28;20073;-56
2022/09/25 12:04:23;;;;;;;2.45;0.60;;;;;;;;;;4967733;28;20058;-62
2022/09/25 12:06:57;;;;;;;2.67;0.70;;;;;;;;;;4960108;28;20058;-64
2022/09/25 12:09:35;;;;;;;3.85;0.70;;;;;;;;;;4969342;28;20248;-59
2022/09/25 12:12:06;;;;;;;0.60;0.43;;;;;;;;;;4965419;28;20062;-56
2022/09/25 12:14:36;;;;;;;6.57;0.82;;;;;;;;;;4969744;28;20055;-56
2022/09/25 12:17:08;;;;;;;3.60;0.60;;;;;;;;;;4964674;28;20066;-58
2022/09/25 12:19:38;;;;;;;5.00;0.52;;;;;;;;;;4970298;28;20059;-59
2022/09/25 12:22:08;;;;;;;2.72;0.70;;;;;;;;;;4963771;28;20058;-54
2022/09/25 12:24:39;;;;;;;1.88;0.50;;;;;;;;;;4969803;28;20054;-59
2022/09/25 12:27:10;;;;;;;0.60;0.40;;;;;;;;;;4963881;28;20051;-57
2022/09/25 12:29:41;;;;;;;3.60;0.63;;;;;;;;;;4970123;28;20073;-61
2022/09/25 12:32:15;;;;;;;2.55;0.82;;;;;;;;;;4964850;28;20055;-61
2022/09/25 12:34:54;;;;;;;3.10;0.70;;;;;;;;;;4969987;28;20051;-56
2022/09/25 12:37:26;;;;;;;2.28;0.50;;;;;;;;;;4963924;28;20051;-57
2022/09/25 12:39:56;;;;;;;2.00;0.60;;;;;;;;;;4964504;28;20058;-55
2022/09/25 12:42:26;;;;;;;1.38;0.50;;;;;;;;;;4963815;28;20051;-58
2022/09/25 12:44:56;;;;;;;5.35;0.40;;;;;;;;;;4967009;28;20062;-56
2022/09/25 12:47:32;;;;;;;1.02;0.52;;;;;;;;;;4947618;28;20093;-55
2022/09/25 12:50:01;;;;;;;3.33;0.70;;;;;;;;;;4969514;28;20055;-58
2022/09/25 12:52:36;;;;;;;4.60;0.65;;;;;;;;;;4963732;28;20079;-60
2022/09/25 12:55:05;;;;;;;3.15;0.50;;;;;;;;;;4969057;28;20058;-60
2022/09/25 12:57:36;;;;;;;1.52;0.52;;;;;;;;;;4961858;28;20057;-57
2022/09/25 13:00:05;;;;;;;4.82;0.80;;;;;;;;;;4968950;28;20050;-61
2022/09/25 13:02:38;;;;;;;2.10;0.50;;;;;;;;;;4969429;28;20050;-59
2022/09/25 13:05:08;;;;;;;3.17;0.50;;;;;;;;;;4967455;28;20070;-56
2022/09/25 13:07:38;;;;;;;4.63;0.60;;;;;;;;;;4969945;28;20051;-59
2022/09/25 13:10:09;;;;;;;1.95;0.50;;;;;;;;;;4962181;28;20047;-60
2022/09/25 13:12:37;;;;;;;0.98;0.50;;;;;;;;;;4968568;28;20073;-58
2022/09/25 13:15:07;;;;;;;4.20;0.63;;;;;;;;;;4962854;28;20054;-57
2022/09/25 13:17:36;;;;;;;1.40;0.70;;;;;;;;;;4967101;28;20050;-62
2022/09/25 13:20:21;;;;;;;3.50;0.65;;;;;;;;;;4962809;28;20145;-61
2022/09/25 13:22:47;;;;;;;0.85;0.45;;;;;;;;;;4969122;28;20065;-65
2022/09/25 13:25:18;;;;;;;4.15;0.70;;;;;;;;;;4962524;28;20078;-57
2022/09/25 13:27:46;;;;;;;1.48;0.50;;;;;;;;;;4967522;28;20078;-63
2022/09/25 13:30:20;;;;;;;1.17;0.43;;;;;;;;;;4962848;28;20113;-56
2022/09/25 13:32:50;;;;;;;1.35;0.70;;;;;;;;;;4969688;28;20051;-52
2022/09/25 13:35:17;;;;;;;3.75;0.68;;;;;;;;;;4962500;28;20066;-55
2022/09/25 13:37:44;;;;;;;0.73;0.50;;;;;;;;;;4968099;28;20055;-56
2022/09/25 13:43:19;;;;;;;3.20;0.70;;;;;;;;;;4935344;29;20047;-57
2022/09/25 13:45:46;;;;;;;0.60;0.50;;;;;;;;;;4955481;28;20173;-58
2022/09/25 13:48:33;;;;;;;1.10;0.40;;;;;;;;;;4967507;28;20057;-64
2022/09/25 13:51:26;;;;;;;2.03;0.50;;;;;;;;;;4957884;28;20201;-57
2022/09/25 13:53:57;;;;;;;2.30;0.70;;;;;;;;;;4965155;28;20042;-58
2022/09/25 13:56:25;;;;;;;2.00;0.50;;;;;;;;;;4955096;28;20053;-61
2022/09/25 13:59:00;;;;;;;0.93;0.50;;;;;;;;;;4959761;28;20074;-57
2022/09/25 14:01:33;;;;;;;2.05;0.60;;;;;;;;;;4953594;28;20078;-66
2022/09/25 14:04:07;;;;;;;2.83;0.75;;;;;;;;;;4960864;28;20058;-63
2022/09/25 14:06:35;;;;;;;1.17;0.60;;;;;;;;;;4953370;28;20057;-58
2022/09/25 14:09:12;;;;;;;1.80;0.57;;;;;;;;;;4965955;28;20054;-59
2022/09/25 14:11:41;;;;;;;1.27;0.55;;;;;;;;;;4955100;28;20047;-56
2022/09/25 14:14:11;;;;;;;3.00;0.60;;;;;;;;;;4966480;28;20054;-60
2022/09/25 14:16:42;;;;;;;2.15;0.60;;;;;;;;;;4955558;28;20052;-61
2022/09/25 14:19:16;;;;;;;1.60;0.50;;;;;;;;;;4971500;28;20061;-53
2022/09/25 14:21:44;;;;;;;0.82;0.60;;;;;;;;;;4965353;28;20074;-55
2022/09/25 14:24:14;;;;;;;4.43;0.45;;;;;;;;;;4968137;28;20141;-59
2022/09/25 14:26:44;;;;;;;1.23;0.47;;;;;;;;;;4961587;28;20090;-58
2022/09/25 14:29:14;;;;;;;1.27;0.70;;;;;;;;;;4968509;28;20055;-57
2022/09/25 14:31:43;;;;;;;3.33;0.43;;;;;;;;;;4960712;28;20042;-54
2022/09/25 14:34:24;;;;;;;1.00;0.50;;;;;;;;;;4951775;28;20101;-61
2022/09/25 14:36:59;;;;;;;3.15;0.50;;;;;;;;;;4928272;28;20057;-58
2022/09/25 14:39:28;;;;;;;1.13;0.52;;;;;;;;;;4951956;28;20149;-52
2022/09/25 14:42:17;;;;;;;1.63;0.40;;;;;;;;;;4944605;28;20062;-62
2022/09/25 14:45:02;;;;;;;1.13;0.60;;;;;;;;;;4958909;28;20050;-55
2022/09/25 14:47:35;;;;;;;2.10;0.68;;;;;;;;;;4964021;28;20046;-53
2022/09/25 14:50:04;;;;;;;1.48;0.55;;;;;;;;;;4970516;28;20143;-58
2022/09/25 14:52:32;;;;;;;1.85;0.50;;;;;;;;;;4950876;28;20050;-61
2022/09/25 14:54:59;;;;;;;1.08;0.43;;;;;;;;;;4966538;28;20051;-61
2022/09/25 14:57:28;;;;;;;1.48;0.60;;;;;;;;;;4959885;28;20055;-58
2022/09/25 14:59:56;;;;;;;0.75;0.40;;;;;;;;;;4966874;28;20058;-66
2022/09/25 15:02:32;;;;;;;1.45;0.40;;;;;;;;;;4961289;28;20066;-56
2022/09/25 15:04:59;;;;;;;0.55;0.40;;;;;;;;;;4967497;28;20114;-57
2022/09/25 15:07:28;;;;;;;2.25;0.82;;;;;;;;;;4967111;28;20109;-54
2022/09/25 15:09:56;;;;;;;;;;;;;;;;;;4980893;28;20182;-63
2022/09/25 15:12:24;;;;;;;1.75;0.50;;;;;;;;;;4968719;28;19929;-54
2022/09/25 15:14:51;;;;;;;;;;;;;;;;;;4962395;28;20047;-63
2022/09/25 15:17:26;;;;;;;1.10;0.40;;;;;;;;;;4967088;28;19933;-63
2022/09/25 15:19:54;;;;;;;0.75;0.43;;;;;;;;;;4961320;28;20062;-57
2022/09/25 15:22:23;;;;;;;2.67;0.60;;;;;;;;;;4967053;28;20059;-65
2022/09/25 15:24:53;;;;;;;1.17;0.57;;;;;;;;;;4960939;28;20059;-59
2022/09/25 15:27:20;;;;;;;0.80;0.50;;;;;;;;;;4966289;28;20109;-60
2022/09/25 15:29:47;;;;;;;1.85;0.57;;;;;;;;;;4961406;28;20058;-60
2022/09/25 15:32:18;;;;;;;1.85;0.60;;;;;;;;;;4965884;28;20057;-58